Time;durP1;ratioP1;P1;durP2;ratioP2;P2;SDS_P1;SDS_P2;PMS_P1;PMS_P2;Temp;Humidity;BMP_temperature;BMP_pressure;BME280_temperature;BME280_humidity;BME280_pressure;Samples;Min_cycle;Max_cycle;Signal;HPM_P1;HPM_P2
2021/12/18 00:00:02;;;;;;;23.35;16.50;;;6.30;99.90;;;;;;7378198;19;20135;-73
2021/12/18 00:02:33;;;;;;;36.05;22.50;;;6.00;99.90;;;;;;7374343;19;20501;-74
2021/12/18 00:05:02;;;;;;;23.92;16.17;;;6.00;99.90;;;;;;7362882;19;20609;-73
2021/12/18 00:07:34;;;;;;;20.20;15.00;;;6.10;99.90;;;;;;7370891;19;20143;-74
2021/12/18 00:10:05;;;;;;;20.40;14.57;;;6.20;99.90;;;;;;7375396;19;20226;-74
2021/12/18 00:12:47;;;;;;;22.90;15.27;;;6.40;99.90;;;;;;7370682;19;20797;-74
2021/12/18 00:15:14;;;;;;;20.80;13.30;;;6.40;99.90;;;;;;7362510;19;20138;-74
2021/12/18 00:17:45;;;;;;;20.70;13.63;;;6.30;99.90;;;;;;7373586;19;20229;-74
2021/12/18 00:20:17;;;;;;;25.38;15.43;;;6.20;99.90;;;;;;7373612;19;20139;-74
2021/12/18 00:22:47;;;;;;;19.25;13.77;;;6.30;99.90;;;;;;7374434;19;20135;-74
2021/12/18 00:25:16;;;;;;;18.48;12.93;;;6.20;99.90;;;;;;7372079;19;20147;-74
2021/12/18 00:27:47;;;;;;;22.55;14.82;;;6.10;99.90;;;;;;7371607;19;20135;-74
2021/12/18 00:30:16;;;;;;;22.10;13.85;;;6.10;99.90;;;;;;7372562;19;20156;-73
2021/12/18 00:32:48;;;;;;;22.63;14.57;;;6.10;99.90;;;;;;7377137;19;20239;-73
2021/12/18 00:35:17;;;;;;;22.92;16.30;;;6.00;99.90;;;;;;7369765;19;20612;-73
2021/12/18 00:37:46;;;;;;;20.13;14.50;;;6.00;99.90;;;;;;7374913;19;20131;-73
2021/12/18 00:40:23;;;;;;;22.80;14.98;;;5.90;99.90;;;;;;7374330;19;20147;-73
2021/12/18 00:43:02;;;;;;;20.33;13.35;;;5.90;99.90;;;;;;7376295;19;20733;-72
2021/12/18 00:45:31;;;;;;;23.48;14.77;;;5.70;99.90;;;;;;7368928;19;20425;-72
2021/12/18 00:47:58;;;;;;;24.05;15.23;;;5.70;99.90;;;;;;7375070;19;20135;-72
2021/12/18 00:50:30;;;;;;;22.52;14.60;;;5.80;99.90;;;;;;7368657;19;20128;-73
2021/12/18 00:52:57;;;;;;;20.17;13.85;;;5.80;99.90;;;;;;7372765;19;20155;-71
2021/12/18 00:55:26;;;;;;;22.65;14.43;;;5.70;99.90;;;;;;7360870;19;20159;-73
2021/12/18 00:57:54;;;;;;;21.25;14.20;;;5.50;99.90;;;;;;7368500;19;20145;-73
2021/12/18 01:00:28;;;;;;;23.25;14.55;;;5.60;99.90;;;;;;7374511;19;20128;-73
2021/12/18 01:02:59;;;;;;;19.77;12.95;;;5.80;99.90;;;;;;7371160;19;20132;-74
2021/12/18 01:05:32;;;;;;;21.77;13.88;;;5.60;99.90;;;;;;7369159;19;20202;-74
2021/12/18 01:08:00;;;;;;;19.70;13.93;;;5.30;99.90;;;;;;7366328;19;20828;-73
2021/12/18 01:13:31;;;;;;;24.63;15.20;;;5.30;99.90;;;;;;7376279;19;20140;-73
2021/12/18 01:16:17;;;;;;;20.17;13.90;;;5.50;99.90;;;;;;7370387;19;20138;-73
2021/12/18 01:24:22;;;;;;;20.58;14.43;;;5.80;99.90;;;;;;7366762;19;20540;-73
2021/12/18 01:26:51;;;;;;;23.58;14.30;;;5.90;99.90;;;;;;7366916;19;20132;-73
2021/12/18 01:29:20;;;;;;;22.27;15.63;;;6.10;99.90;;;;;;7372599;19;20135;-73
2021/12/18 01:31:46;;;;;;;22.02;14.13;;;6.10;99.90;;;;;;7367446;19;20128;-72
2021/12/18 01:34:15;;;;;;;18.92;14.35;;;6.10;99.90;;;;;;7376785;19;20128;-74
2021/12/18 01:36:48;;;;;;;26.90;15.07;;;6.20;99.90;;;;;;7373372;19;20511;-73
2021/12/18 01:39:15;;;;;;;21.30;14.55;;;6.20;99.90;;;;;;7373584;19;20135;-72
2021/12/18 01:42:33;;;;;;;23.27;14.77;;;6.10;99.90;;;;;;7380218;19;20637;-72
2021/12/18 01:52:53;;;;;;;24.67;16.65;;;5.60;99.90;;;;;;7379920;19;20163;-73
2021/12/18 01:55:30;;;;;;;22.77;16.45;;;5.60;99.90;;;;;;7369349;19;20162;-73
2021/12/18 01:57:59;;;;;;;22.33;14.98;;;5.40;99.90;;;;;;7379786;19;20668;-72
2021/12/18 02:00:36;;;;;;;24.23;15.95;;;5.40;99.90;;;;;;7383182;19;20124;-74
2021/12/18 02:03:07;;;;;;;21.33;15.18;;;5.40;99.90;;;;;;7385267;19;20119;-74
2021/12/18 02:05:34;;;;;;;21.30;14.30;;;5.50;99.90;;;;;;7382123;19;20160;-74
2021/12/18 02:08:03;;;;;;;24.73;15.90;;;5.50;99.90;;;;;;7379949;19;20159;-74
2021/12/18 02:10:59;;;;;;;23.08;16.33;;;5.60;99.90;;;;;;7379109;19;20140;-74
2021/12/18 02:14:33;;;;;;;21.55;14.55;;;5.60;99.90;;;;;;7378818;19;20553;-74
2021/12/18 02:21:47;;;;;;;21.45;13.65;;;6.00;99.90;;;;;;7378960;19;20144;-75
2021/12/18 02:24:22;;;;;;;21.90;15.93;;;6.10;99.90;;;;;;7378580;19;20147;-73
2021/12/18 02:26:53;;;;;;;18.42;12.93;;;6.10;99.90;;;;;;7383669;19;20135;-73
2021/12/18 02:29:22;;;;;;;21.75;14.23;;;6.00;99.90;;;;;;7376900;19;20140;-73
2021/12/18 02:31:53;;;;;;;22.98;14.52;;;6.00;99.90;;;;;;7376399;19;20143;-73
2021/12/18 02:34:29;;;;;;;19.40;13.18;;;5.80;99.90;;;;;;7381133;19;20162;-73
2021/12/18 02:37:04;;;;;;;20.63;13.35;;;5.60;99.90;;;;;;7384212;19;20210;-73
2021/12/18 02:42:18;;;;;;;22.60;12.73;;;5.50;99.90;;;;;;7372615;19;20405;-75
2021/12/18 02:44:47;;;;;;;21.27;14.15;;;5.40;99.90;;;;;;7376995;19;20148;-74
2021/12/18 02:47:16;;;;;;;21.35;13.90;;;5.40;99.90;;;;;;7376892;19;20481;-74
2021/12/18 02:49:55;;;;;;;22.90;15.23;;;5.30;99.90;;;;;;7381515;19;20136;-74
2021/12/18 02:52:28;;;;;;;20.65;12.75;;;5.20;99.90;;;;;;7376667;19;20162;-74
2021/12/18 02:55:00;;;;;;;21.55;14.13;;;5.10;99.90;;;;;;7359388;19;20422;-74
2021/12/18 02:57:26;;;;;;;20.08;13.02;;;5.10;99.90;;;;;;7379834;19;20502;-74
2021/12/18 02:59:59;;;;;;;19.75;12.98;;;5.10;99.90;;;;;;7387486;19;20377;-74
2021/12/18 03:02:33;;;;;;;24.23;14.57;;;5.30;99.90;;;;;;7378586;19;20164;-74
2021/12/18 03:05:06;;;;;;;23.00;14.57;;;5.40;99.90;;;;;;7386497;19;20140;-73
2021/12/18 03:07:33;;;;;;;24.25;14.50;;;5.50;99.90;;;;;;7379416;19;20826;-73
2021/12/18 03:25:55;;;;;;;23.50;15.48;;;5.90;99.90;;;;;;7379023;19;20131;-74
2021/12/18 03:28:30;;;;;;;19.38;13.07;;;6.00;99.90;;;;;;7379626;19;20622;-74
2021/12/18 03:30:59;;;;;;;21.15;14.18;;;6.00;99.90;;;;;;7363747;19;20139;-74
2021/12/18 03:33:30;;;;;;;22.13;15.07;;;6.10;99.90;;;;;;7377656;19;20139;-73
2021/12/18 03:36:02;;;;;;;22.02;13.40;;;6.00;99.90;;;;;;7380816;19;20606;-73
2021/12/18 03:38:31;;;;;;;24.65;15.40;;;5.80;99.90;;;;;;7376387;19;20589;-73
2021/12/18 03:41:03;;;;;;;21.38;14.55;;;5.60;99.90;;;;;;7373701;19;20131;-74
2021/12/18 03:43:31;;;;;;;21.70;13.77;;;5.40;99.90;;;;;;7380872;19;20195;-74
2021/12/18 03:46:00;;;;;;;22.27;14.50;;;5.10;99.90;;;;;;7373860;19;20642;-73
2021/12/18 03:48:34;;;;;;;25.30;15.00;;;5.20;99.90;;;;;;7377483;19;20190;-73
2021/12/18 03:51:01;;;;;;;21.92;13.38;;;5.00;99.90;;;;;;7382694;19;20216;-73
2021/12/18 03:53:29;;;;;;;26.35;14.23;;;4.80;99.90;;;;;;7371062;19;20475;-74
2021/12/18 03:55:56;;;;;;;21.13;12.98;;;4.60;99.90;;;;;;7363842;19;20211;-74
2021/12/18 03:58:22;;;;;;;22.80;14.15;;;4.70;99.90;;;;;;7369892;19;20128;-74
2021/12/18 04:00:49;;;;;;;24.75;15.95;;;5.00;99.90;;;;;;7377128;19;20598;-74
2021/12/18 04:03:18;;;;;;;21.00;13.30;;;5.10;99.90;;;;;;7375016;19;20145;-73
2021/12/18 04:05:46;;;;;;;23.52;13.18;;;5.10;99.90;;;;;;7379363;19;20143;-73
2021/12/18 04:08:15;;;;;;;24.45;14.20;;;5.20;99.90;;;;;;7374370;19;20193;-73
2021/12/18 04:10:44;;;;;;;23.05;13.25;;;5.10;99.90;;;;;;7378408;19;20135;-74
2021/12/18 04:13:10;;;;;;;27.60;13.85;;;5.20;99.90;;;;;;7371476;19;20543;-73
2021/12/18 04:15:39;;;;;;;25.25;14.60;;;5.20;99.90;;;;;;7379119;19;20152;-73
2021/12/18 04:18:10;;;;;;;21.73;13.18;;;5.20;99.90;;;;;;7375294;19;20148;-74
2021/12/18 04:20:37;;;;;;;22.65;13.23;;;5.10;99.90;;;;;;7377844;19;20203;-72
2021/12/18 04:23:08;;;;;;;28.58;12.95;;;5.00;99.90;;;;;;7370186;19;20139;-72
2021/12/18 04:25:34;;;;;;;22.02;12.68;;;4.90;99.90;;;;;;7377479;19;20144;-73
2021/12/18 04:28:06;;;;;;;24.10;13.27;;;4.70;99.90;;;;;;7378001;19;20629;-73
2021/12/18 04:30:35;;;;;;;23.20;12.90;;;4.70;99.90;;;;;;7377050;19;20605;-74
2021/12/18 04:33:04;;;;;;;22.13;13.90;;;4.60;99.90;;;;;;7371581;19;20136;-73
2021/12/18 04:35:35;;;;;;;22.15;13.10;;;4.70;99.90;;;;;;7376644;19;20789;-72
2021/12/18 04:38:06;;;;;;;20.83;12.45;;;4.50;99.90;;;;;;7373075;19;20141;-73
2021/12/18 04:40:34;;;;;;;19.60;11.55;;;4.50;99.90;;;;;;7379994;19;20143;-73
2021/12/18 04:43:05;;;;;;;19.50;11.95;;;4.50;99.90;;;;;;7374094;19;20145;-73
2021/12/18 04:45:36;;;;;;;22.95;11.95;;;4.40;99.90;;;;;;7374483;19;20500;-73
2021/12/18 04:48:07;;;;;;;23.52;12.77;;;4.60;99.90;;;;;;7368412;19;20203;-73
2021/12/18 04:50:34;;;;;;;20.15;12.48;;;4.50;99.90;;;;;;7375737;19;20167;-73
2021/12/18 04:53:00;;;;;;;23.27;14.38;;;4.50;99.90;;;;;;7376093;19;20128;-73
2021/12/18 04:55:26;;;;;;;19.65;12.35;;;4.50;99.90;;;;;;7367273;19;20164;-73
2021/12/18 04:57:55;;;;;;;24.73;12.70;;;4.60;99.90;;;;;;7371543;19;20225;-73
2021/12/18 05:00:36;;;;;;;25.27;13.55;;;4.50;99.90;;;;;;7376234;19;20146;-72
2021/12/18 05:03:12;;;;;;;21.60;11.27;;;4.50;99.90;;;;;;7367929;19;20562;-74
2021/12/18 05:05:41;;;;;;;20.50;12.13;;;4.40;99.90;;;;;;7378276;19;20160;-73
2021/12/18 05:08:10;;;;;;;21.77;11.35;;;4.40;99.90;;;;;;7378166;19;20166;-73
2021/12/18 05:10:41;;;;;;;20.42;12.73;;;4.40;99.90;;;;;;7379862;19;20385;-73
2021/12/18 05:13:15;;;;;;;22.88;12.55;;;4.40;99.90;;;;;;7382989;19;20167;-73
2021/12/18 05:15:44;;;;;;;19.27;10.70;;;4.40;99.90;;;;;;7372561;19;20139;-73
2021/12/18 05:18:15;;;;;;;21.75;12.25;;;4.40;99.90;;;;;;7384095;19;20127;-73
2021/12/18 05:20:41;;;;;;;20.73;12.10;;;4.30;99.90;;;;;;7381594;19;20142;-73
2021/12/18 05:23:10;;;;;;;19.17;11.30;;;4.10;99.90;;;;;;7373726;19;20150;-73
2021/12/18 05:25:44;;;;;;;22.00;11.98;;;3.80;99.90;;;;;;7382139;19;20203;-73
2021/12/18 05:28:15;;;;;;;23.05;12.02;;;3.60;99.90;;;;;;7386201;19;20504;-74
2021/12/18 05:30:46;;;;;;;20.70;10.93;;;3.50;99.90;;;;;;7379577;19;20645;-74
2021/12/18 05:33:12;;;;;;;21.23;12.60;;;3.40;99.90;;;;;;7381148;19;20572;-73
2021/12/18 05:35:41;;;;;;;24.15;11.98;;;3.50;99.90;;;;;;7382441;19;20146;-73
2021/12/18 05:38:10;;;;;;;23.08;12.85;;;3.60;99.90;;;;;;7378814;19;20152;-73
2021/12/18 05:40:38;;;;;;;19.33;11.52;;;3.80;99.90;;;;;;7380896;19;20132;-73
2021/12/18 05:43:08;;;;;;;21.13;11.82;;;3.90;99.90;;;;;;7384658;19;20131;-73
2021/12/18 05:45:41;;;;;;;21.33;11.85;;;4.10;99.90;;;;;;7377860;19;20490;-74
2021/12/18 05:48:12;;;;;;;24.73;11.38;;;4.20;99.90;;;;;;7379297;19;20140;-74
2021/12/18 05:50:45;;;;;;;25.42;13.57;;;4.20;99.90;;;;;;7379692;19;20135;-74
2021/12/18 05:53:14;;;;;;;20.52;12.80;;;4.40;99.90;;;;;;7376014;19;20716;-74
2021/12/18 05:55:43;;;;;;;18.58;10.95;;;4.50;99.90;;;;;;7372435;19;20147;-72
2021/12/18 05:58:14;;;;;;;18.90;11.30;;;4.40;99.90;;;;;;7373002;19;20128;-71
2021/12/18 06:00:42;;;;;;;22.48;12.43;;;4.20;99.90;;;;;;7369114;19;21113;-72
2021/12/18 06:03:16;;;;;;;18.02;10.60;;;4.10;99.90;;;;;;7368671;19;20223;-72
2021/12/18 06:05:44;;;;;;;19.27;11.63;;;4.30;99.90;;;;;;7377114;19;20139;-74
2021/12/18 06:08:14;;;;;;;18.95;10.35;;;4.40;99.90;;;;;;7373538;19;20344;-77
2021/12/18 06:10:42;;;;;;;20.92;12.15;;;4.40;99.90;;;;;;7373500;19;20420;-72
2021/12/18 06:13:09;;;;;;;17.50;11.05;;;4.30;99.90;;;;;;7371744;19;20138;-74
2021/12/18 06:15:36;;;;;;;20.73;12.13;;;4.60;99.90;;;;;;7379944;19;20169;-74
2021/12/18 06:18:05;;;;;;;19.23;10.85;;;4.60;99.90;;;;;;7378125;19;20143;-73
2021/12/18 06:20:32;;;;;;;20.48;12.30;;;4.80;99.90;;;;;;7375044;19;20164;-76
2021/12/18 06:23:01;;;;;;;21.17;11.82;;;4.80;99.90;;;;;;7378452;19;20127;-75
2021/12/18 06:25:35;;;;;;;22.05;10.80;;;4.80;99.90;;;;;;7372302;19;20128;-73
2021/12/18 06:28:04;;;;;;;15.60;10.30;;;4.50;99.90;;;;;;7368290;19;20136;-72
2021/12/18 06:30:35;;;;;;;17.80;11.13;;;4.10;99.90;;;;;;7373663;19;20140;-73
2021/12/18 06:33:06;;;;;;;18.60;10.32;;;3.80;99.90;;;;;;7377349;19;20144;-72
2021/12/18 06:35:34;;;;;;;15.40;9.73;;;3.80;99.90;;;;;;7374012;19;20140;-74
2021/12/18 06:38:04;;;;;;;18.63;9.63;;;3.90;99.90;;;;;;7378365;19;20131;-75
2021/12/18 06:40:35;;;;;;;15.02;9.95;;;3.80;99.90;;;;;;7379382;19;20136;-74
2021/12/18 06:43:06;;;;;;;16.35;9.90;;;3.80;99.90;;;;;;7374885;19;20123;-73
2021/12/18 06:45:35;;;;;;;15.77;8.80;;;3.90;99.90;;;;;;7371027;19;20138;-73
2021/12/18 06:48:06;;;;;;;19.38;9.57;;;3.90;99.90;;;;;;7380183;19;20163;-73
2021/12/18 06:50:40;;;;;;;16.08;8.68;;;4.00;99.90;;;;;;7382286;19;20131;-73
2021/12/18 06:53:09;;;;;;;14.25;8.40;;;4.10;99.90;;;;;;7372408;19;20142;-74
2021/12/18 06:55:38;;;;;;;19.55;9.60;;;4.10;99.90;;;;;;7370069;19;20568;-77
2021/12/18 06:58:04;;;;;;;18.40;9.25;;;4.30;99.90;;;;;;7373476;19;20124;-77
2021/12/18 07:00:31;;;;;;;16.52;8.60;;;4.40;99.90;;;;;;7370261;19;20140;-77
2021/12/18 07:02:57;;;;;;;14.88;9.05;;;4.50;99.90;;;;;;7373094;19;20144;-77
2021/12/18 07:05:24;;;;;;;13.25;7.95;;;4.70;99.90;;;;;;7370598;19;20158;-77
2021/12/18 07:07:53;;;;;;;13.85;9.18;;;4.80;99.90;;;;;;7373626;19;20601;-77
2021/12/18 07:10:22;;;;;;;16.00;8.88;;;4.90;99.90;;;;;;7363752;19;20143;-72
2021/12/18 07:12:49;;;;;;;14.40;7.70;;;4.70;99.90;;;;;;7365156;19;20660;-72
2021/12/18 07:15:15;;;;;;;15.10;8.35;;;4.80;99.90;;;;;;7371764;19;20182;-71
2021/12/18 07:17:44;;;;;;;14.85;8.43;;;4.90;99.90;;;;;;7372496;19;20128;-72
2021/12/18 07:20:11;;;;;;;13.77;7.72;;;4.90;99.90;;;;;;7368178;19;20124;-71
2021/12/18 07:22:38;;;;;;;17.30;8.77;;;5.00;99.90;;;;;;7373753;19;20195;-69
2021/12/18 07:25:05;;;;;;;13.65;7.47;;;5.10;99.90;;;;;;7343497;19;20139;-72
2021/12/18 07:27:33;;;;;;;16.60;10.38;;;5.00;99.90;;;;;;7356905;19;21042;-73
2021/12/18 07:29:59;;;;;;;14.95;8.73;;;5.00;99.90;;;;;;7366985;19;20413;-71
2021/12/18 07:32:31;;;;;;;15.98;9.55;;;4.90;99.90;;;;;;7363151;19;20135;-72
2021/12/18 07:34:59;;;;;;;14.98;8.60;;;5.10;99.90;;;;;;7353725;19;20140;-70
2021/12/18 07:37:26;;;;;;;15.52;9.15;;;5.00;99.90;;;;;;7359488;19;20128;-77
2021/12/18 07:39:53;;;;;;;17.38;9.40;;;4.80;99.90;;;;;;7360327;19;20142;-73
2021/12/18 07:42:23;;;;;;;16.45;9.57;;;4.60;99.90;;;;;;7374747;19;20140;-73
2021/12/18 07:44:52;;;;;;;17.27;9.15;;;4.50;99.90;;;;;;7376808;19;20626;-70
2021/12/18 07:47:23;;;;;;;19.15;9.35;;;4.60;99.90;;;;;;7374457;19;20487;-70
2021/12/18 07:49:56;;;;;;;17.77;9.68;;;4.80;99.90;;;;;;7370100;19;20128;-71
2021/12/18 07:52:24;;;;;;;16.10;8.55;;;4.90;99.90;;;;;;7371030;19;20140;-70
2021/12/18 07:54:51;;;;;;;15.35;8.75;;;4.90;99.90;;;;;;7365705;19;20166;-71
2021/12/18 07:57:19;;;;;;;20.38;10.38;;;4.90;99.90;;;;;;7368893;19;20123;-72
2021/12/18 07:59:46;;;;;;;17.70;9.55;;;5.00;99.90;;;;;;7378441;19;20504;-72
2021/12/18 08:02:19;;;;;;;18.83;9.68;;;5.10;99.90;;;;;;7368543;19;20151;-73
2021/12/18 08:04:46;;;;;;;15.13;8.82;;;5.10;99.90;;;;;;7373280;19;20135;-73
2021/12/18 08:07:12;;;;;;;19.17;10.10;;;5.20;99.90;;;;;;7376370;19;20136;-76
2021/12/18 08:09:38;;;;;;;17.23;8.13;;;5.20;99.90;;;;;;7368075;19;20174;-68
2021/12/18 08:12:11;;;;;;;13.43;9.25;;;5.30;99.90;;;;;;7372405;19;20163;-78
2021/12/18 08:14:37;;;;;;;16.13;8.95;;;5.40;99.90;;;;;;7371989;19;20362;-75
2021/12/18 08:17:06;;;;;;;16.75;8.40;;;5.40;99.90;;;;;;7362387;19;20532;-74
2021/12/18 08:19:36;;;;;;;19.13;8.85;;;5.30;99.90;;;;;;7365289;19;20131;-74
2021/12/18 08:22:06;;;;;;;16.48;8.75;;;5.30;99.90;;;;;;7370332;19;20153;-73
2021/12/18 08:24:32;;;;;;;16.35;9.05;;;5.10;99.90;;;;;;7373628;19;20764;-75
2021/12/18 08:27:01;;;;;;;19.30;9.85;;;5.10;99.90;;;;;;7365970;19;20199;-69
2021/12/18 08:29:30;;;;;;;15.70;9.98;;;5.20;99.90;;;;;;7345618;19;20139;-72
2021/12/18 08:31:56;;;;;;;18.95;9.70;;;5.30;99.90;;;;;;7342659;19;20768;-70
2021/12/18 08:34:30;;;;;;;18.33;8.45;;;5.40;99.90;;;;;;7350937;19;20199;-77
2021/12/18 08:36:59;;;;;;;18.90;8.85;;;5.30;99.90;;;;;;7375881;19;20478;-75
2021/12/18 08:39:28;;;;;;;17.80;10.48;;;5.20;99.90;;;;;;7375017;19;20146;-75
2021/12/18 08:42:06;;;;;;;14.80;8.48;;;5.10;99.90;;;;;;7376792;19;20136;-75
2021/12/18 08:44:35;;;;;;;15.45;8.55;;;4.90;99.90;;;;;;7380955;19;20142;-76
2021/12/18 08:47:02;;;;;;;16.80;9.38;;;4.80;99.90;;;;;;7379054;19;20479;-75
2021/12/18 08:49:34;;;;;;;20.08;10.80;;;4.70;99.90;;;;;;7371129;19;20542;-75
2021/12/18 08:52:05;;;;;;;15.60;9.27;;;4.80;99.90;;;;;;7381157;19;20143;-76
2021/12/18 08:54:32;;;;;;;18.55;10.32;;;4.80;99.90;;;;;;7381395;19;20151;-74
2021/12/18 08:56:58;;;;;;;18.08;9.88;;;4.90;99.90;;;;;;7378986;19;20134;-75
2021/12/18 08:59:27;;;;;;;18.20;10.45;;;4.90;99.90;;;;;;7378390;19;20143;-75
2021/12/18 09:01:59;;;;;;;15.77;9.43;;;4.80;99.90;;;;;;7379334;19;20173;-75
2021/12/18 09:04:25;;;;;;;15.10;9.73;;;4.70;99.90;;;;;;7379615;19;20171;-75
2021/12/18 09:06:54;;;;;;;19.88;9.93;;;4.80;99.90;;;;;;7378704;19;20154;-76
2021/12/18 09:09:21;;;;;;;19.23;9.05;;;4.70;99.90;;;;;;7379917;19;21107;-71
2021/12/18 09:11:47;;;;;;;19.60;10.52;;;4.80;99.90;;;;;;7375544;19;20214;-72
2021/12/18 09:14:18;;;;;;;17.98;9.23;;;4.70;99.90;;;;;;7379388;19;20139;-71
2021/12/18 09:16:47;;;;;;;15.35;9.20;;;4.70;99.90;;;;;;7379060;19;20139;-72
2021/12/18 09:19:14;;;;;;;18.98;10.35;;;4.90;99.90;;;;;;7380248;19;20130;-72
2021/12/18 09:21:45;;;;;;;16.95;10.77;;;4.80;99.90;;;;;;7381225;19;20582;-72
2021/12/18 09:24:14;;;;;;;16.88;9.80;;;4.80;99.90;;;;;;7379617;19;20139;-72
2021/12/18 09:26:40;;;;;;;20.90;10.13;;;4.90;99.90;;;;;;7380994;19;20150;-72
2021/12/18 09:29:10;;;;;;;18.35;11.73;;;4.80;99.90;;;;;;7370023;19;20148;-72
2021/12/18 09:31:39;;;;;;;19.33;9.93;;;4.90;99.90;;;;;;7379457;19;20151;-72
2021/12/18 09:34:11;;;;;;;20.58;11.10;;;5.00;99.90;;;;;;7376392;19;20132;-72
2021/12/18 09:36:40;;;;;;;18.40;10.30;;;4.90;99.90;;;;;;7377841;19;20143;-72
2021/12/18 09:39:09;;;;;;;19.58;10.13;;;4.70;99.90;;;;;;7375591;19;20140;-72
2021/12/18 09:41:41;;;;;;;16.25;8.98;;;4.80;99.90;;;;;;7377510;19;20737;-72
2021/12/18 09:44:07;;;;;;;19.83;10.63;;;4.70;99.90;;;;;;7379696;19;20178;-72
2021/12/18 09:46:34;;;;;;;17.45;8.85;;;4.70;99.90;;;;;;7379792;19;20234;-72
2021/12/18 09:49:02;;;;;;;16.00;9.20;;;4.70;99.90;;;;;;7380898;19;20203;-72
2021/12/18 09:51:31;;;;;;;14.80;8.75;;;4.40;99.90;;;;;;7381540;19;20123;-72
2021/12/18 09:54:00;;;;;;;19.50;10.05;;;4.30;99.90;;;;;;7378314;19;20198;-73
2021/12/18 09:56:28;;;;;;;20.52;10.05;;;4.40;99.90;;;;;;7382702;19;20139;-72
2021/12/18 09:58:54;;;;;;;16.75;9.35;;;4.70;99.90;;;;;;7383891;19;20839;-73
2021/12/18 10:01:21;;;;;;;14.43;9.05;;;4.90;99.90;;;;;;7384791;19;20476;-73
2021/12/18 10:03:50;;;;;;;18.23;9.80;;;5.00;99.90;;;;;;7386823;19;20609;-72
2021/12/18 10:06:40;;;;;;;18.05;10.55;;;4.90;99.90;;;;;;7383951;19;20175;-72
2021/12/18 10:09:33;;;;;;;15.65;8.30;;;4.80;99.90;;;;;;7382412;19;20506;-72
2021/12/18 10:12:05;;;;;;;12.15;8.60;;;4.90;99.90;;;;;;7380708;19;20127;-72
2021/12/18 10:14:42;;;;;;;15.05;8.25;;;4.80;99.90;;;;;;7384418;19;20913;-72
2021/12/18 10:17:27;;;;;;;13.63;8.45;;;4.80;99.90;;;;;;7383709;19;20556;-72
2021/12/18 10:20:14;;;;;;;15.57;9.02;;;5.00;99.90;;;;;;7383443;19;20150;-72
2021/12/18 10:22:51;;;;;;;20.20;10.40;;;5.30;99.90;;;;;;7384568;19;20412;-72
2021/12/18 10:25:23;;;;;;;16.90;9.60;;;5.30;99.90;;;;;;7383669;19;20495;-71
2021/12/18 10:28:17;;;;;;;16.00;9.75;;;5.20;99.90;;;;;;7386090;19;20502;-72
2021/12/18 10:30:53;;;;;;;13.20;8.35;;;5.00;99.90;;;;;;7385329;19;20136;-73
2021/12/18 10:33:33;;;;;;;14.55;8.77;;;4.70;99.90;;;;;;7381432;19;20139;-72
2021/12/18 10:36:03;;;;;;;17.00;9.82;;;4.80;99.90;;;;;;7381822;19;20511;-71
2021/12/18 10:38:47;;;;;;;12.52;7.97;;;4.70;99.90;;;;;;7381954;19;20608;-72
2021/12/18 10:41:25;;;;;;;16.30;9.60;;;4.60;99.90;;;;;;7383518;19;20637;-72
2021/12/18 10:44:10;;;;;;;15.27;8.45;;;4.60;99.90;;;;;;7383797;19;20644;-72
2021/12/18 10:46:41;;;;;;;15.32;9.10;;;4.50;99.90;;;;;;7382258;19;20135;-72
2021/12/18 10:49:10;;;;;;;14.20;8.50;;;4.40;99.90;;;;;;7385647;19;20626;-72
2021/12/18 10:51:41;;;;;;;18.83;8.57;;;4.40;99.90;;;;;;7382817;19;20143;-72
2021/12/18 10:54:09;;;;;;;12.27;7.90;;;4.50;99.90;;;;;;7380233;19;20140;-72
2021/12/18 10:56:43;;;;;;;14.73;8.02;;;4.60;99.90;;;;;;7382255;19;20235;-72
2021/12/18 10:59:31;;;;;;;14.05;8.88;;;4.90;99.90;;;;;;7378449;19;20142;-72
2021/12/18 11:02:20;;;;;;;13.27;8.10;;;4.90;99.90;;;;;;7383874;19;20140;-72
2021/12/18 11:04:51;;;;;;;15.00;8.57;;;4.60;99.90;;;;;;7379954;19;20225;-72
2021/12/18 11:07:27;;;;;;;16.98;8.82;;;4.50;99.90;;;;;;7383283;19;20155;-72
2021/12/18 11:15:25;;;;;;;12.93;8.15;;;4.70;99.90;;;;;;7382026;19;20139;-72
2021/12/18 11:17:54;;;;;;;14.05;8.52;;;4.70;99.90;;;;;;7381614;19;20169;-72
2021/12/18 11:20:21;;;;;;;17.42;9.38;;;4.70;99.90;;;;;;7379609;19;20140;-72
2021/12/18 11:22:50;;;;;;;16.77;8.45;;;5.00;99.90;;;;;;7385782;19;20159;-72
2021/12/18 11:25:17;;;;;;;15.98;8.88;;;5.30;99.90;;;;;;7383478;19;20479;-72
2021/12/18 11:27:55;;;;;;;15.27;8.20;;;5.50;99.90;;;;;;7384137;19;20135;-72
2021/12/18 11:30:21;;;;;;;16.80;8.27;;;5.60;99.90;;;;;;7380641;19;20127;-72
2021/12/18 11:32:54;;;;;;;14.70;7.90;;;5.50;99.90;;;;;;7380869;19;20618;-72
2021/12/18 11:35:23;;;;;;;13.60;8.25;;;5.30;99.90;;;;;;7385849;19;20139;-72
2021/12/18 11:38:02;;;;;;;15.02;8.05;;;5.00;99.90;;;;;;7384624;19;20143;-72
2021/12/18 11:40:35;;;;;;;11.63;7.45;;;4.90;99.90;;;;;;7382139;19;20143;-72
2021/12/18 11:43:26;;;;;;;14.57;8.02;;;5.10;99.90;;;;;;7384110;19;20147;-72
2021/12/18 11:45:55;;;;;;;16.30;8.80;;;5.50;99.90;;;;;;7383088;19;20160;-73
2021/12/18 11:48:24;;;;;;;14.13;8.48;;;5.50;99.90;;;;;;7382079;19;20149;-72
2021/12/18 11:50:52;;;;;;;15.27;9.15;;;5.40;99.90;;;;;;7382602;19;20140;-72
2021/12/18 11:53:36;;;;;;;13.25;7.78;;;5.40;99.90;;;;;;7381267;19;20585;-71
2021/12/18 11:56:03;;;;;;;12.02;7.32;;;5.40;99.90;;;;;;7379574;19;20163;-72
2021/12/18 11:58:35;;;;;;;13.32;7.93;;;5.50;99.90;;;;;;7382582;19;20151;-72
2021/12/18 12:01:05;;;;;;;15.40;7.47;;;5.70;99.90;;;;;;7382875;19;20127;-72
2021/12/18 12:03:45;;;;;;;15.02;8.65;;;6.00;99.90;;;;;;7383286;19;20142;-72
2021/12/18 12:06:31;;;;;;;14.80;9.38;;;6.20;99.90;;;;;;7381067;19;20625;-72
2021/12/18 12:09:39;;;;;;;11.57;7.53;;;6.10;99.90;;;;;;7379954;19;20625;-71
2021/12/18 12:12:13;;;;;;;14.32;7.97;;;5.90;99.90;;;;;;7376493;19;20698;-72
2021/12/18 12:14:46;;;;;;;12.63;7.70;;;5.90;99.90;;;;;;7381240;19;20131;-71
2021/12/18 12:17:19;;;;;;;14.60;9.35;;;5.90;99.90;;;;;;7380850;19;20135;-71
2021/12/18 12:19:53;;;;;;;14.60;8.27;;;5.90;99.90;;;;;;7382403;19;20131;-71
2021/12/18 12:22:41;;;;;;;14.52;7.40;;;6.00;99.90;;;;;;7383191;19;20609;-72
2021/12/18 12:25:12;;;;;;;11.68;7.45;;;6.20;99.90;;;;;;7383631;19;20138;-71
2021/12/18 12:27:45;;;;;;;10.80;7.60;;;6.40;99.90;;;;;;7380945;19;20144;-72
2021/12/18 12:30:34;;;;;;;13.80;7.68;;;6.40;99.90;;;;;;7380617;19;20151;-73
2021/12/18 12:33:10;;;;;;;15.65;9.30;;;6.40;99.90;;;;;;7378449;19;20639;-72
2021/12/18 12:36:06;;;;;;;14.57;7.45;;;6.20;99.90;;;;;;7381631;19;20140;-72
2021/12/18 12:39:02;;;;;;;14.90;8.90;;;6.20;99.90;;;;;;7380939;19;20158;-72
2021/12/18 12:41:37;;;;;;;13.13;7.82;;;6.00;99.90;;;;;;7380261;19;20664;-72
2021/12/18 12:44:36;;;;;;;14.43;8.82;;;6.00;99.90;;;;;;7381372;19;20147;-72
2021/12/18 12:47:23;;;;;;;16.95;10.35;;;5.90;99.90;;;;;;7380390;19;20147;-73
2021/12/18 12:49:52;;;;;;;13.30;7.90;;;5.90;99.90;;;;;;7379968;19;20633;-72
2021/12/18 12:52:24;;;;;;;15.77;9.52;;;6.20;99.90;;;;;;7380187;19;20144;-72
2021/12/18 12:54:54;;;;;;;16.17;10.18;;;6.10;99.90;;;;;;7378653;19;20613;-72
2021/12/18 12:57:26;;;;;;;13.55;8.73;;;6.10;99.90;;;;;;7378973;19;20159;-73
2021/12/18 13:00:01;;;;;;;13.43;8.40;;;6.40;99.90;;;;;;7380949;19;20154;-73
2021/12/18 13:02:49;;;;;;;13.57;9.13;;;6.50;99.90;;;;;;7377792;19;20521;-72
2021/12/18 13:05:19;;;;;;;15.50;9.38;;;6.80;99.90;;;;;;7380540;19;20481;-73
2021/12/18 13:07:53;;;;;;;14.27;9.73;;;7.30;99.90;;;;;;7380477;19;20132;-72
2021/12/18 13:10:21;;;;;;;14.00;9.20;;;7.40;99.90;;;;;;7375964;19;20158;-72
2021/12/18 13:12:55;;;;;;;16.65;10.45;;;7.40;99.90;;;;;;7379218;19;20147;-72
2021/12/18 13:15:23;;;;;;;17.98;10.27;;;7.50;99.90;;;;;;7378518;19;20161;-72
2021/12/18 13:18:09;;;;;;;14.02;9.75;;;7.70;99.90;;;;;;7353469;19;20223;-72
2021/12/18 13:20:44;;;;;;;14.68;9.40;;;7.90;99.90;;;;;;7377405;19;20614;-72
2021/12/18 13:23:17;;;;;;;14.25;9.23;;;8.10;99.90;;;;;;7381025;19;20746;-72
2021/12/18 13:25:50;;;;;;;14.52;9.48;;;8.10;99.90;;;;;;7378688;19;20144;-72
2021/12/18 13:28:21;;;;;;;17.50;9.40;;;7.80;99.90;;;;;;7381261;19;20207;-72
2021/12/18 13:30:51;;;;;;;13.63;8.70;;;7.60;99.90;;;;;;7384211;19;20635;-75
2021/12/18 13:33:26;;;;;;;13.52;8.15;;;7.60;99.90;;;;;;7385789;19;20139;-75
2021/12/18 13:35:58;;;;;;;15.10;9.93;;;7.70;99.90;;;;;;7387057;19;20136;-75
2021/12/18 13:38:35;;;;;;;16.38;9.70;;;7.70;99.90;;;;;;7386676;19;20215;-76
2021/12/18 13:41:07;;;;;;;17.40;9.70;;;7.50;99.90;;;;;;7387626;19;20215;-74
2021/12/18 13:43:33;;;;;;;15.98;9.52;;;7.20;99.90;;;;;;7386843;19;20139;-75
2021/12/18 13:46:08;;;;;;;15.40;9.65;;;7.00;99.90;;;;;;7385501;19;20139;-76
2021/12/18 13:48:43;;;;;;;16.80;9.82;;;6.90;99.90;;;;;;7385968;19;20620;-75